Latest Weather Observations for Solomon Airport

IDW60801

Issued at 10:13 pm WST Sunday 20 May 2018 (issued every 10 minutes, with the page automatically refreshed every 10 minutes)

About weather observations | Map of weather stations | Latest weather observations for WA | Other Formats
Station Details ID: 505060 Name: SOLOMON AIRPORT Lat: -22.25 Lon: 117.85 Height: 611.47 m
Data from the previous 72 hours. | See also: Recent months for locations in Western Australia
Date/Time
WST
Temp
°C
App
Temp
°C
Dew
Point
°C
Rel
Hum
%
Delta-T
°C
Wind Press
QNH
hPa
Press
MSL
hPa
Rain since
9am
mm
Dir  Spd
km/h
Gust
km/h
Spd
kts
Gust
kts
20/10:00pm 13.2 9.0 -8.0 22 7.6 E 7 9 4 5 1022.1 1019.1 0.0
20/09:30pm 14.6 10.4 -8.1 20 8.3 E 7 11 4 6 1022.3 1019.4 0.0
20/09:00pm 15.7 11.1 -7.8 19 8.7 ENE 9 11 5 6 1022.4 1019.5 0.0
20/08:30pm 16.4 11.8 -7.9 18 9.1 ENE 9 11 5 6 1022.3 1019.4 0.0
20/08:00pm 15.7 11.5 -7.8 19 8.7 ESE 7 9 4 5 1022.0 1019.0 0.0
20/07:30pm 15.9 11.6 -8.4 18 9.0 ESE 7 9 4 5 1021.5 1018.5 0.0
20/07:00pm 16.5 12.2 -8.6 17 9.3 E 7 11 4 6 1021.1 1018.1 0.0
20/06:30pm 18.3 13.7 -7.9 16 10.0 E 9 9 5 5 1020.6 1017.6 0.0
20/06:00pm 20.0 15.4 -8.3 14 10.9 E 9 11 5 6 1020.2 1017.2 0.0
20/05:30pm 22.3 17.3 -8.4 12 12.1 E 11 19 6 10 1020.0 1017.0 0.0
20/05:00pm 23.8 17.3 -8.4 11 12.9 E 19 28 10 15 1019.8 1016.8 0.0
20/04:30pm 24.1 17.4 -8.2 11 13.1 E 20 32 11 17 1019.5 1016.5 0.0
20/04:00pm 24.4 17.7 -7.9 11 13.1 E 20 33 11 18 1019.3 1016.2 0.0
20/03:30pm 24.5 16.7 -7.9 11 13.2 E 26 33 14 18 1019.3 1016.2 0.0
20/03:00pm 24.6 17.5 -7.8 11 13.2 E 22 33 12 18 1019.0 1016.0 0.0
20/02:30pm 24.1 16.7 -7.0 12 12.9 ENE 24 32 13 17 1019.0 1016.0 0.0
20/02:00pm 24.1 17.4 -8.2 11 13.0 E 20 33 11 18 1019.3 1016.2 0.0
20/01:30pm 24.2 16.0 -8.1 11 13.1 E 28 41 15 22 1019.5 1016.5 0.0
20/01:00pm 23.5 15.3 -7.5 12 12.6 E 28 41 15 22 1019.9 1016.9 0.0
20/12:30pm 23.0 14.8 -7.9 12 12.4 ENE 28 35 15 19 1020.4 1017.4 0.0
20/12:00pm 22.8 13.8 -8.1 12 12.3 E 32 44 17 24 1021.1 1018.1 0.0
20/11:30am 22.9 13.9 -8.0 12 12.4 E 32 43 17 23 1021.4 1018.4 0.0
20/11:00am 21.9 12.3 -8.7 12 11.9 E 35 48 19 26 1021.7 1018.7 0.0
20/10:51am 22.2 13.6 -8.5 12 12.1 E 30 48 16 26 1021.8 1018.8 0.0
20/10:30am 21.7 11.7 -8.9 12 11.9 E 37 46 20 25 1022.0 1019.0 0.0
20/10:00am 21.4 12.3 -9.1 12 11.7 E 32 44 17 24 1022.3 1019.4 0.0
20/09:31am 20.9 11.8 -9.5 12 11.6 ENE 32 50 17 27 1022.3 1019.4 0.0
20/09:30am 20.8 11.5 -9.6 12 11.6 ENE 33 50 18 27 1022.2 1019.2 0.0
20/09:01am 20.5 11.2 -9.8 12 11.4 ENE 33 52 18 28 1022.1 1019.1 0.0
20/09:00am 20.7 11.5 -8.7 13 11.3 ENE 33 48 18 26 1022.1 1019.1 0.0
20/08:40am 20.0 10.7 -9.2 13 11.1 ENE 33 52 18 28 1021.9 1018.9 0.0
20/08:30am 19.8 11.1 -9.4 13 11.0 E 30 39 16 21 1022.0 1019.0 0.0
20/08:00am 19.0 11.5 -9.1 14 10.5 E 24 39 13 21 1021.8 1018.8 0.0
20/07:30am 17.9 10.7 -9.1 15 10.0 E 22 30 12 16 1021.7 1018.7 0.0
20/07:00am 14.8 9.9 -7.3 21 8.2 E 11 19 6 10 1021.6 1018.6 0.0
20/06:30am 9.0 5.5 -6.8 32 5.6 SSE 4 15 2 8 1021.6 1018.6 0.0
20/06:00am 9.8 6.2 -6.9 30 5.9 WSW 4 4 2 2 1021.5 1018.5 0.0
20/05:30am 9.2 5.7 -6.6 32 5.6 WSW 4 6 2 3 1021.3 1018.3 0.0
20/05:00am 8.2 4.7 -6.3 35 5.1 W 4 6 2 3 1021.2 1018.2 0.0
20/04:30am 7.3 3.3 -6.1 38 4.7 WSW 7 9 4 5 1021.1 1018.1 0.0
20/04:00am 9.0 4.9 -6.8 32 5.5 W 7 9 4 5 1021.1 1018.1 0.0
20/03:30am 8.6 4.5 -6.7 33 5.4 W 7 9 4 5 1021.1 1018.1 0.0
20/03:00am 7.8 3.3 -6.7 35 5.0 W 9 9 5 5 1021.0 1018.0 0.0
20/02:30am 9.5 5.6 -6.8 31 5.8 WSW 6 6 3 3 1021.1 1018.1 0.0
20/02:00am 10.7 6.8 -7.0 28 6.3 WSW 6 7 3 4 1021.1 1018.1 0.0
20/01:30am 8.8 5.2 -7.0 32 5.5 SW 4 6 2 3 1021.1 1018.1 0.0
20/01:00am 8.7 5.5 -7.0 32 5.5 SSW 2 6 1 3 1021.1 1018.1 0.0
20/12:30am 9.8 6.3 -6.5 31 5.8 ESE 4 11 2 6 1021.2 1018.2 0.0
20/12:00am 9.2 5.7 -6.6 32 5.6 SE 4 6 2 3 1021.3 1018.3 0.0
 
Date/Time
WST
Temp
°C
App
Temp
°C
Dew
Point
°C
Rel
Hum
%
Delta-T
°C
Wind Press
QNH
hPa
Press
MSL
hPa
Rain since
9am
mm
Dir  Spd
km/h
Gust
km/h
Spd
kts
Gust
kts
19/11:30pm 9.2 5.3 -6.6 32 5.6 ESE 6 6 3 3 1021.4 1018.4 0.0
19/11:00pm 9.7 6.2 -6.6 31 5.8 E 4 4 2 2 1021.6 1018.6 0.0
19/10:30pm 10.1 6.5 -7.1 29 6.1 E 4 4 2 2 1021.6 1018.6 0.0
19/10:00pm 11.7 7.7 -7.1 26 6.8 ENE 6 6 3 3 1021.6 1018.6 0.0
19/09:30pm 13.5 9.5 -7.2 23 7.6 ENE 6 7 3 4 1021.5 1018.5 0.0
19/09:00pm 14.3 10.1 -7.7 21 8.1 E 7 9 4 5 1021.6 1018.6 0.0
19/08:30pm 16.1 11.5 -7.5 19 8.9 ENE 9 11 5 6 1021.4 1018.4 0.0
19/08:00pm 13.3 9.3 -7.9 22 7.6 ENE 6 9 3 5 1021.1 1018.1 0.0
19/07:30pm 15.6 11.4 -7.9 19 8.7 ESE 7 7 4 4 1020.7 1017.7 0.0
19/07:00pm 16.6 12.6 -7.8 18 9.2 ESE 6 6 3 3 1020.4 1017.4 0.0
19/06:30pm 18.3 14.3 -7.9 16 10.0 E 6 9 3 5 1020.0 1017.0 0.0
19/06:00pm 19.3 14.8 -7.1 16 10.4 ENE 9 11 5 6 1019.8 1016.8 0.0
19/05:30pm 21.5 16.6 -7.1 14 11.5 ENE 11 15 6 8 1019.5 1016.5 0.0
19/05:00pm 23.0 17.0 -6.9 13 12.2 ENE 17 24 9 13 1019.2 1016.1 0.0
19/04:30pm 23.5 17.4 -7.5 12 12.6 E 17 26 9 14 1018.8 1015.8 0.0
19/04:00pm 23.7 17.2 -7.4 12 12.7 ENE 19 28 10 15 1018.6 1015.6 0.0
19/03:30pm 24.1 17.5 -7.0 12 12.9 ENE 20 30 11 16 1018.4 1015.4 0.0
19/03:00pm 23.9 17.8 -7.2 12 12.8 E 17 30 9 16 1018.7 1015.7 0.0
19/02:30pm 23.8 17.2 -7.3 12 12.8 E 20 33 11 18 1018.6 1015.6 0.0
19/02:00pm 24.1 18.2 -6.0 13 12.7 ENE 17 57 9 31 1018.6 1015.6 0.0
19/01:30pm 23.1 16.2 -5.8 14 12.1 ENE 22 33 12 18 1019.2 1016.1 0.0
19/01:00pm 23.2 16.3 -5.7 14 12.1 E 22 35 12 19 1019.6 1016.6 0.0
19/12:30pm 23.0 15.7 -5.9 14 12.1 E 24 35 13 19 1019.9 1016.9 0.0
19/12:00pm 22.5 14.4 -6.3 14 11.9 ENE 28 39 15 21 1020.2 1017.2 0.0
19/11:30am 21.9 13.4 -6.8 14 11.7 ENE 30 41 16 22 1020.7 1017.7 0.0
19/11:00am 21.8 12.8 -7.8 13 11.7 E 32 41 17 22 1021.1 1018.1 0.0
19/10:30am 21.5 13.0 -7.1 14 11.5 E 30 41 16 22 1021.6 1018.6 0.0
19/10:00am 20.9 12.7 -7.6 14 11.2 ENE 28 41 15 22 1021.9 1018.9 0.0
19/09:30am 20.1 11.6 -7.3 15 10.8 ENE 30 41 16 22 1022.0 1019.0 0.0
19/09:00am 19.6 11.9 -6.1 17 10.3 E 26 41 14 22 1022.1 1019.1 0.0
19/08:30am 18.4 12.6 -4.9 20 9.5 E 17 28 9 15 1022.2 1019.2 0.0
19/08:00am 15.7 13.3 -3.2 27 7.7 CALM 0 4 0 2 1022.3 1019.4 0.0
19/07:30am 11.7 9.3 -3.2 35 5.9 CALM 0 4 0 2 1022.3 1019.4 0.0
19/07:00am 13.2 8.9 -4.4 29 6.8 ENE 9 11 5 6 1022.0 1019.0 0.0
19/06:30am 12.5 8.6 -4.6 30 6.6 E 7 9 4 5 1021.6 1018.6 0.0
19/06:00am 12.1 8.2 -4.5 31 6.4 E 7 9 4 5 1021.4 1018.4 0.0
19/05:30am 11.5 7.6 -4.2 33 6.0 ESE 7 9 4 5 1021.2 1018.2 0.0
19/05:00am 12.5 8.6 -5.0 29 6.7 SE 7 9 4 5 1021.1 1018.1 0.0
19/04:30am 13.5 9.1 -5.6 26 7.3 ESE 9 17 5 9 1021.0 1018.0 0.0
19/04:00am 16.1 11.0 -5.6 22 8.5 E 13 20 7 11 1021.1 1018.1 0.0
19/03:30am 15.9 11.1 -6.4 21 8.6 E 11 15 6 8 1021.2 1018.2 0.0
19/03:00am 16.7 10.9 -5.1 22 8.7 E 17 22 9 12 1021.1 1018.1 0.0
19/02:30am 16.8 11.0 -4.4 23 8.6 E 17 26 9 14 1021.3 1018.3 0.0
19/02:00am 16.9 11.1 -4.9 22 8.7 E 17 24 9 13 1021.4 1018.4 0.0
19/01:30am 16.9 11.1 -4.3 23 8.6 E 17 24 9 13 1021.6 1018.6 0.0
19/01:00am 16.7 11.0 -3.9 24 8.4 E 17 22 9 12 1021.6 1018.6 0.0
19/12:30am 16.5 11.1 -4.1 24 8.4 E 15 20 8 11 1021.7 1018.7 0.0
19/12:00am 16.1 11.5 -3.9 25 8.1 E 11 15 6 8 1021.9 1018.9 0.0
 
Date/Time
WST
Temp
°C
App
Temp
°C
Dew
Point
°C
Rel
Hum
%
Delta-T
°C
Wind Press
QNH
hPa
Press
MSL
hPa
Rain since
9am
mm
Dir  Spd
km/h
Gust
km/h
Spd
kts
Gust
kts
18/11:30pm 16.5 10.8 -3.6 25 8.3 E 17 22 9 12 1022.1 1019.1 0.0
18/11:00pm 15.2 10.9 -4.7 25 7.9 ENE 9 13 5 7 1022.2 1019.2 0.0
18/10:30pm 15.1 11.2 -4.8 25 7.9 E 7 9 4 5 1022.1 1019.1 0.0
18/10:00pm 13.4 9.7 -4.7 28 7.0 SE 6 6 3 3 1022.1 1019.1 0.0
18/09:30pm 15.2 11.5 -4.2 26 7.8 ENE 6 9 3 5 1022.0 1019.0 0.0
18/09:00pm 15.8 11.5 -4.7 24 8.1 ENE 9 9 5 5 1021.9 1018.9 0.0
18/08:30pm 16.8 12.5 -5.0 22 8.7 ENE 9 11 5 6 1021.9 1018.9 0.0
18/08:00pm 17.6 12.9 -5.0 21 9.1 ENE 11 13 6 7 1021.7 1018.7 0.0
18/07:30pm 17.6 13.4 -4.3 22 9.0 ENE 9 11 5 6 1021.5 1018.5 0.0
18/07:00pm 18.6 14.8 -4.1 21 9.4 E 7 11 4 6 1021.1 1018.1 0.0
18/06:30pm 19.0 15.3 -4.4 20 9.7 ENE 6 7 3 4 1020.6 1017.6 0.0
18/06:00pm 21.1 16.4 -4.9 17 10.9 ESE 11 15 6 8 1020.3 1017.3 0.0
18/05:30pm 22.4 16.9 -5.5 15 11.7 ESE 15 22 8 12 1020.1 1017.1 0.0
18/05:00pm 23.4 17.5 -5.6 14 12.2 ESE 17 22 9 12 1019.9 1016.9 0.0
18/04:30pm 24.0 18.9 -5.1 14 12.5 E 13 22 7 12 1019.6 1016.6 0.0
18/04:00pm 24.2 18.4 -4.9 14 12.5 E 17 26 9 14 1019.4 1016.3 0.0
18/03:30pm 24.3 18.9 -4.9 14 12.6 ENE 15 24 8 13 1019.4 1016.3 0.0
18/03:00pm 24.4 18.5 -5.8 13 12.8 E 17 24 9 13 1019.5 1016.5 0.0
18/02:30pm 23.7 18.6 -5.3 14 12.3 E 13 24 7 13 1019.4 1016.3 0.0
18/02:00pm 23.6 18.5 -5.4 14 12.3 E 13 20 7 11 1019.8 1016.8 0.0
18/01:30pm 23.6 18.6 -4.5 15 12.1 ENE 13 28 7 15 1020.0 1017.0 0.0
18/01:00pm 23.0 16.6 -5.0 15 11.9 ENE 20 32 11 17 1020.3 1017.3 0.0
18/12:30pm 22.4 16.1 -5.5 15 11.7 ENE 19 32 10 17 1020.7 1017.7 0.0
18/12:00pm 22.1 15.0 -4.1 17 11.2 NE 24 35 13 19 1021.1 1018.1 0.0
18/11:30am 21.5 13.6 -4.5 17 11.0 E 28 37 15 20 1021.5 1018.5 0.0
18/11:00am 21.6 14.1 -4.5 17 11.0 ENE 26 37 14 20 1021.9 1018.9 0.0
18/10:30am 20.9 12.3 -4.3 18 10.7 ENE 32 44 17 24 1022.1 1019.1 0.0
18/10:00am 20.4 11.3 -4.0 19 10.3 E 35 52 19 28 1022.4 1019.5 0.0
18/09:30am 20.1 10.2 -3.5 20 10.1 E 39 52 21 28 1022.4 1019.5 0.0
18/09:06am 19.8 11.2 -2.5 22 9.7 E 33 52 18 28 1022.9 1019.9 0.0
18/09:00am 19.4 10.4 -2.8 22 9.5 E 35 52 19 28 1022.8 1019.8 0.0
18/08:37am 19.2 10.8 -2.4 23 9.3 E 32 50 17 27 1022.8 1019.8 0.0
18/08:30am 18.8 9.4 -2.7 23 9.2 E 37 50 20 27 1022.8 1019.8 0.0
18/08:00am 18.3 9.9 -2.6 24 8.9 E 32 46 17 25 1022.8 1019.8 0.0
18/07:33am 17.7 10.1 -2.5 25 8.6 E 28 46 15 25 1022.8 1019.8 0.0
18/07:30am 17.6 10.3 -2.6 25 8.6 E 26 41 14 22 1022.9 1019.9 0.0
18/07:00am 17.1 10.1 -3.6 24 8.5 E 24 37 13 20 1022.5 1019.6 0.0
18/06:44am 16.9 9.1 -3.8 24 8.5 E 28 46 15 25 1022.3 1019.4 0.0
18/06:30am 16.9 9.9 -3.8 24 8.5 ENE 24 44 13 24 1022.1 1019.1 0.0
18/06:00am 16.8 9.4 -3.3 25 8.3 ENE 26 41 14 22 1022.1 1019.1 0.0
18/05:30am 17.2 8.7 -3.0 25 8.5 E 32 43 17 23 1022.1 1019.1 0.0
18/05:20am 17.4 9.7 -2.8 25 8.5 E 28 46 15 25 1022.1 1019.1 0.0
18/05:00am 17.2 9.9 -3.0 25 8.4 E 26 33 14 18 1022.1 1019.1 0.0
18/04:30am 17.6 10.3 -2.6 25 8.6 E 26 46 14 25 1022.1 1019.1 0.0
18/04:27am 17.4 9.7 -2.8 25 8.5 E 28 46 15 25 1022.1 1019.1 0.0
18/04:00am 17.5 9.8 -2.7 25 8.5 E 28 43 15 23 1022.3 1019.4 0.0
18/03:30am 17.6 9.9 -2.6 25 8.6 E 28 44 15 24 1022.3 1019.4 0.0
18/03:00am 17.6 10.1 -1.6 27 8.3 E 28 43 15 23 1022.3 1019.4 0.0
18/02:30am 17.5 10.3 -1.7 27 8.3 E 26 35 14 19 1022.7 1019.7 0.0
18/02:09am 17.7 10.1 -2.0 26 8.5 E 28 46 15 25 1022.9 1019.9 0.0
18/02:00am 17.7 10.8 -2.5 25 8.6 E 24 35 13 19 1022.9 1019.9 0.0
18/01:30am 18.0 11.8 -2.8 24 8.8 E 20 32 11 17 1022.9 1019.9 0.0
18/01:00am 18.3 11.3 -3.2 23 9.0 E 24 37 13 20 1022.9 1019.9 0.0
18/12:30am 18.5 11.9 -3.6 22 9.3 E 22 32 12 17 1023.0 1020.0 0.0
18/12:00am 18.8 12.2 -3.3 22 9.3 E 22 32 12 17 1023.0 1020.0 0.0
 
Date/Time
WST
Temp
°C
App
Temp
°C
Dew
Point
°C
Rel
Hum
%
Delta-T
°C
Wind Press
QNH
hPa
Press
MSL
hPa
Rain since
9am
mm
Dir  Spd
km/h
Gust
km/h
Spd
kts
Gust
kts
17/11:30pm 18.6 11.9 -4.1 21 9.4 E 22 32 12 17 1023.2 1020.2 0.0
17/11:00pm 17.6 11.8 -5.0 21 9.1 E 17 24 9 13 1023.2 1020.2 0.0
17/10:30pm 16.4 11.3 -4.8 23 8.5 E 13 19 7 10 1023.2 1020.2 0.0

Other Formats:

Comma delimited format used in spreadsheet applications
http://www.bom.gov.au/fwo/IDW60801/IDW60801.99217.axf

JavaScript Object Notation format (JSON) in row-major order
http://www.bom.gov.au/fwo/IDW60801/IDW60801.99217.json